Time;durP1;ratioP1;P1;durP2;ratioP2;P2;SDS_P1;SDS_P2;PMS_P1;PMS_P2;Temp;Humidity;BMP_temperature;BMP_pressure;BME280_temperature;BME280_humidity;BME280_pressure;Samples;Min_cycle;Max_cycle;Signal;HPM_P1;HPM_P2
2021/04/01 00:02:04;;;;;;;30.90;22.90;;;14.60;64.00;;;;;;5026427;28;20044;-76
2021/04/01 00:04:30;;;;;;;32.30;23.25;;;14.60;64.00;;;;;;5040004;28;20021;-77
2021/04/01 00:06:55;;;;;;;32.15;23.48;;;14.50;64.10;;;;;;5029908;28;20041;-77
2021/04/01 00:09:21;;;;;;;29.38;21.75;;;14.50;64.30;;;;;;5027346;28;20050;-77
2021/04/01 00:11:47;;;;;;;30.15;21.27;;;14.40;64.30;;;;;;5031361;28;20389;-78
2021/04/01 00:14:12;;;;;;;30.80;21.65;;;14.40;64.50;;;;;;5024307;28;20025;-77
2021/04/01 00:16:38;;;;;;;30.27;22.08;;;14.40;64.70;;;;;;5028271;28;20521;-77
2021/04/01 00:19:04;;;;;;;31.08;21.83;;;14.40;64.90;;;;;;5026749;28;20072;-76
2021/04/01 00:21:30;;;;;;;31.55;22.02;;;14.40;65.00;;;;;;5027961;28;20041;-76
2021/04/01 00:23:56;;;;;;;34.85;22.17;;;14.40;64.90;;;;;;5017339;28;20033;-76
2021/04/01 00:26:22;;;;;;;30.33;22.40;;;14.40;64.90;;;;;;5019632;28;20041;-77
2021/04/01 00:28:47;;;;;;;33.17;23.13;;;14.50;64.80;;;;;;5019380;28;20033;-77
2021/04/01 00:31:13;;;;;;;32.88;22.70;;;14.50;64.80;;;;;;5021957;28;20469;-77
2021/04/01 00:33:39;;;;;;;31.38;23.08;;;14.50;64.80;;;;;;5028898;28;20026;-77
2021/04/01 00:36:05;;;;;;;34.20;24.40;;;14.50;64.90;;;;;;5019517;28;20030;-77
2021/04/01 00:38:30;;;;;;;32.42;24.20;;;14.40;64.90;;;;;;5031263;28;20079;-77
2021/04/01 00:40:56;;;;;;;32.75;23.67;;;14.40;65.10;;;;;;5032108;28;20046;-77
2021/04/01 00:43:22;;;;;;;32.47;23.30;;;14.30;65.30;;;;;;5025248;28;20021;-76
2021/04/01 00:45:48;;;;;;;31.67;23.30;;;14.10;65.50;;;;;;5013660;28;20384;-78
2021/04/01 00:48:13;;;;;;;33.63;23.15;;;14.10;65.80;;;;;;5044299;28;20029;-77
2021/04/01 00:50:39;;;;;;;30.77;23.80;;;14.10;65.90;;;;;;5037120;28;20414;-77
2021/04/01 00:53:04;;;;;;;32.85;23.67;;;14.00;66.00;;;;;;5030987;28;20025;-78
2021/04/01 00:55:30;;;;;;;35.42;23.75;;;14.00;66.30;;;;;;5008730;28;20069;-77
2021/04/01 00:58:00;;;;;;;35.20;23.85;;;14.00;66.40;;;;;;5005109;28;20041;-77
2021/04/01 01:00:29;;;;;;;34.13;23.20;;;13.90;66.60;;;;;;4998319;28;20368;-77
2021/04/01 01:02:55;;;;;;;32.75;23.65;;;13.80;66.90;;;;;;5024756;28;20035;-76
2021/04/01 01:05:23;;;;;;;33.95;24.60;;;13.80;67.00;;;;;;5023105;28;20372;-77
2021/04/01 01:07:48;;;;;;;35.38;24.70;;;13.80;67.20;;;;;;5027030;28;20538;-77
2021/04/01 01:10:23;;;;;;;34.15;24.17;;;13.70;67.40;;;;;;5028636;28;20037;-77
2021/04/01 01:12:49;;;;;;;34.72;23.70;;;13.70;68.00;;;;;;5022201;28;20037;-76
2021/04/01 01:15:15;;;;;;;34.08;24.52;;;13.60;68.50;;;;;;5022215;28;20032;-77
2021/04/01 01:17:41;;;;;;;33.30;24.60;;;13.60;69.10;;;;;;5021043;28;20457;-77
2021/04/01 01:20:09;;;;;;;34.75;25.40;;;13.40;70.10;;;;;;5035400;28;20519;-78
2021/04/01 01:22:37;;;;;;;31.75;23.25;;;13.30;70.50;;;;;;5021986;28;20080;-76
2021/04/01 01:25:09;;;;;;;34.72;23.95;;;13.20;70.60;;;;;;5026199;28;20034;-77
2021/04/01 01:27:36;;;;;;;31.83;23.73;;;13.20;71.00;;;;;;5035693;28;20025;-77
2021/04/01 01:30:08;;;;;;;32.65;22.70;;;13.20;71.00;;;;;;5021786;28;20037;-76
2021/04/01 01:32:37;;;;;;;34.30;24.00;;;13.10;71.10;;;;;;5034152;28;20032;-77
2021/04/01 01:35:17;;;;;;;34.72;24.00;;;13.10;71.10;;;;;;5019061;28;20550;-77
2021/04/01 01:37:53;;;;;;;33.95;24.23;;;13.10;71.10;;;;;;5027587;28;20029;-77
2021/04/01 01:40:21;;;;;;;32.53;24.42;;;13.10;71.20;;;;;;5030141;28;20029;-76
2021/04/01 01:42:50;;;;;;;35.92;23.45;;;13.10;71.20;;;;;;5025449;28;20521;-77
2021/04/01 01:45:17;;;;;;;33.42;23.25;;;13.10;71.20;;;;;;5025019;28;20037;-77
2021/04/01 01:47:43;;;;;;;33.70;24.13;;;13.10;71.20;;;;;;5023343;28;20116;-78
2021/04/01 01:50:13;;;;;;;30.50;22.95;;;13.10;71.20;;;;;;5032096;28;20132;-78
2021/04/01 01:52:40;;;;;;;31.95;24.10;;;13.10;71.20;;;;;;5024064;28;20029;-77
2021/04/01 01:55:07;;;;;;;33.90;23.17;;;13.10;71.10;;;;;;5011231;28;20030;-77
2021/04/01 01:57:37;;;;;;;36.25;24.58;;;13.10;71.10;;;;;;5016374;28;20036;-77
2021/04/01 02:00:12;;;;;;;34.28;24.30;;;13.10;71.10;;;;;;5029433;28;20479;-76
2021/04/01 02:02:38;;;;;;;33.88;24.50;;;13.10;71.00;;;;;;5028047;28;20060;-77
2021/04/01 02:05:08;;;;;;;31.73;23.63;;;13.10;71.00;;;;;;5027586;28;20468;-77
2021/04/01 02:07:34;;;;;;;32.35;23.02;;;13.00;71.00;;;;;;5023637;28;20112;-77
2021/04/01 02:10:05;;;;;;;32.42;23.80;;;13.00;71.20;;;;;;5014053;28;20044;-77
2021/04/01 02:12:30;;;;;;;33.47;24.00;;;12.90;71.30;;;;;;5025053;28;20029;-77
2021/04/01 02:14:56;;;;;;;31.45;23.38;;;12.80;71.40;;;;;;5026017;28;20060;-77
2021/04/01 02:17:24;;;;;;;35.95;25.38;;;12.80;71.60;;;;;;5024142;28;20048;-77
2021/04/01 02:19:56;;;;;;;32.75;23.83;;;12.80;71.70;;;;;;5033157;28;20395;-77
2021/04/01 02:22:22;;;;;;;33.42;23.58;;;12.70;71.80;;;;;;5022399;28;20025;-77
2021/04/01 02:24:48;;;;;;;36.53;23.73;;;12.70;71.80;;;;;;5033910;28;20044;-78
2021/04/01 02:27:14;;;;;;;34.50;22.77;;;12.70;71.90;;;;;;5024979;28;20345;-78
2021/04/01 02:29:39;;;;;;;35.80;24.50;;;12.70;72.00;;;;;;5020215;28;20041;-77
2021/04/01 02:32:05;;;;;;;31.85;23.58;;;12.70;72.10;;;;;;5025564;28;20117;-78
2021/04/01 02:34:31;;;;;;;33.33;23.60;;;12.60;72.00;;;;;;5026697;28;20151;-77
2021/04/01 02:36:57;;;;;;;33.00;24.20;;;12.60;72.20;;;;;;5016763;28;20423;-78
2021/04/01 02:39:22;;;;;;;34.03;24.42;;;12.60;72.30;;;;;;5051760;28;20033;-78
2021/04/01 02:41:48;;;;;;;35.75;22.70;;;12.60;72.40;;;;;;5027265;28;20112;-78
2021/04/01 02:44:14;;;;;;;30.73;22.85;;;12.60;72.40;;;;;;5018103;28;20037;-77
2021/04/01 02:46:39;;;;;;;33.15;23.52;;;12.60;72.40;;;;;;5028587;28;20034;-79
2021/04/01 02:49:05;;;;;;;37.10;24.85;;;12.60;72.40;;;;;;5029566;28;20053;-78
2021/04/01 02:51:31;;;;;;;34.75;23.92;;;12.60;72.40;;;;;;5037262;28;20022;-77
2021/04/01 02:53:56;;;;;;;33.38;24.15;;;12.60;72.20;;;;;;5031728;28;20599;-77
2021/04/01 02:56:22;;;;;;;36.97;23.80;;;12.60;72.00;;;;;;5034473;28;20025;-78
2021/04/01 02:58:47;;;;;;;36.50;24.55;;;12.60;72.10;;;;;;5034845;28;20048;-77
2021/04/01 03:01:13;;;;;;;35.20;24.80;;;12.60;72.10;;;;;;5030711;28;20040;-77
2021/04/01 03:03:44;;;;;;;34.50;23.63;;;12.50;72.30;;;;;;5032739;28;20480;-77
2021/04/01 03:06:10;;;;;;;32.75;23.23;;;12.50;72.40;;;;;;5025005;28;20045;-77
2021/04/01 03:08:36;;;;;;;32.65;22.95;;;12.40;72.40;;;;;;5031156;28;20041;-78
2021/04/01 03:11:02;;;;;;;35.58;23.13;;;12.40;72.60;;;;;;5027059;28;20044;-77
2021/04/01 03:13:27;;;;;;;33.55;23.92;;;12.40;72.80;;;;;;5025123;28;20052;-77
2021/04/01 03:15:53;;;;;;;33.05;24.40;;;12.30;72.90;;;;;;5029888;28;20026;-78
2021/04/01 03:18:19;;;;;;;30.75;22.85;;;12.30;73.00;;;;;;5040094;28;20041;-77
2021/04/01 03:20:47;;;;;;;34.13;24.30;;;12.20;73.10;;;;;;5031772;28;20033;-77
2021/04/01 03:23:12;;;;;;;33.58;24.27;;;12.20;73.00;;;;;;5024269;28;20025;-77
2021/04/01 03:25:38;;;;;;;35.08;23.98;;;12.20;73.20;;;;;;5030857;28;20491;-77
2021/04/01 03:28:05;;;;;;;34.28;23.92;;;12.20;73.30;;;;;;5030203;28;20029;-78
2021/04/01 03:30:31;;;;;;;34.30;24.27;;;12.20;73.30;;;;;;5029371;28;20384;-77
2021/04/01 03:32:56;;;;;;;36.28;24.98;;;12.20;73.40;;;;;;5022963;28;20067;-77
2021/04/01 03:35:23;;;;;;;35.15;24.48;;;12.10;73.50;;;;;;5026732;28;20065;-77
2021/04/01 03:37:59;;;;;;;35.95;24.25;;;12.10;73.60;;;;;;5024725;28;20447;-78
2021/04/01 03:40:25;;;;;;;35.60;24.40;;;12.10;73.70;;;;;;5030194;28;20053;-77
2021/04/01 03:42:51;;;;;;;36.47;23.23;;;12.10;73.60;;;;;;5033843;28;20045;-77
2021/04/01 03:45:17;;;;;;;35.80;23.55;;;12.10;73.70;;;;;;5030571;28;20026;-77
2021/04/01 03:47:44;;;;;;;35.88;25.35;;;12.10;73.80;;;;;;5027420;28;20543;-77
2021/04/01 03:50:13;;;;;;;39.42;23.30;;;12.10;73.80;;;;;;5039339;28;20468;-77
2021/04/01 03:52:39;;;;;;;32.45;23.15;;;12.00;73.80;;;;;;5027215;28;20049;-77
2021/04/01 03:57:55;;;;;;;36.17;25.33;;;12.00;74.00;;;;;;5040571;28;20028;-77
2021/04/01 04:00:30;;;;;;;33.65;24.85;;;12.00;74.00;;;;;;5030962;28;20056;-77
2021/04/01 04:05:41;;;;;;;34.25;24.77;;;11.90;73.90;;;;;;5030460;28;20049;-77
2021/04/01 04:13:09;;;;;;;31.58;24.70;;;11.80;74.20;;;;;;5035406;28;20038;-77
2021/04/01 04:15:35;;;;;;;34.92;25.15;;;11.80;74.30;;;;;;5023827;28;20342;-77
2021/04/01 04:18:01;;;;;;;34.22;24.52;;;11.80;74.40;;;;;;5026771;28;20079;-77
2021/04/01 04:20:27;;;;;;;35.55;25.77;;;11.80;74.30;;;;;;5024023;28;20037;-77
2021/04/01 04:22:53;;;;;;;40.80;29.48;;;11.70;74.50;;;;;;5029218;28;20036;-77
2021/04/01 04:25:19;;;;;;;38.65;28.00;;;11.70;74.80;;;;;;5020718;28;20037;-77
2021/04/01 04:30:21;;;;;;;38.72;27.33;;;11.70;75.40;;;;;;5025384;28;20029;-77
2021/04/01 04:32:47;;;;;;;38.85;28.08;;;11.60;75.40;;;;;;5023663;28;20048;-77
2021/04/01 04:35:13;;;;;;;42.20;27.75;;;11.60;75.50;;;;;;5029393;28;20053;-77
2021/04/01 04:37:39;;;;;;;44.42;29.42;;;11.60;76.00;;;;;;5019398;28;20404;-77
2021/04/01 04:40:06;;;;;;;42.00;29.23;;;11.50;76.90;;;;;;5020595;28;20040;-77
2021/04/01 04:42:32;;;;;;;46.53;30.75;;;11.40;77.20;;;;;;5032431;28;20028;-77
2021/04/01 04:44:58;;;;;;;40.63;29.20;;;11.40;77.50;;;;;;5029849;28;20040;-77
2021/04/01 04:47:23;;;;;;;40.40;29.48;;;11.40;78.20;;;;;;5030748;28;20088;-77
2021/04/01 04:49:49;;;;;;;39.45;29.42;;;11.40;78.10;;;;;;5026364;28;20046;-77
2021/04/01 04:52:15;;;;;;;39.00;29.58;;;11.40;78.20;;;;;;5018510;28;20037;-77
2021/04/01 04:54:42;;;;;;;41.08;29.05;;;11.30;78.30;;;;;;5038782;28;20376;-78
2021/04/01 04:57:24;;;;;;;39.17;29.75;;;11.40;78.30;;;;;;5029046;28;20029;-77
2021/04/01 05:05:05;;;;;;;40.78;29.67;;;11.30;78.30;;;;;;5023788;28;20163;-78
2021/04/01 05:07:30;;;;;;;46.63;30.05;;;11.40;78.20;;;;;;5014985;28;20049;-77
2021/04/01 05:09:56;;;;;;;46.25;31.17;;;11.40;78.10;;;;;;5028983;28;20064;-76
2021/04/01 05:12:21;;;;;;;44.53;31.50;;;11.40;78.10;;;;;;5022728;28;20037;-76
2021/04/01 05:14:47;;;;;;;45.08;31.02;;;11.40;78.00;;;;;;5037151;28;20182;-77
2021/04/01 05:17:16;;;;;;;45.10;34.42;;;11.30;77.90;;;;;;5024219;28;20026;-77
2021/04/01 05:19:42;;;;;;;45.60;33.42;;;11.30;78.10;;;;;;5021361;28;20083;-77
2021/04/01 05:24:37;;;;;;;43.92;30.83;;;11.30;78.10;;;;;;5025366;28;20408;-77
2021/04/01 05:27:19;;;;;;;45.15;32.38;;;11.30;78.20;;;;;;5023627;28;20026;-76
2021/04/01 05:29:57;;;;;;;44.00;30.50;;;11.30;78.00;;;;;;5018534;28;20364;-77
2021/04/01 05:32:28;;;;;;;43.38;30.85;;;11.30;78.00;;;;;;5025078;28;20034;-77
2021/04/01 05:34:55;;;;;;;43.75;32.22;;;11.40;77.70;;;;;;5030120;28;20514;-77
2021/04/01 05:37:22;;;;;;;45.95;31.63;;;11.40;77.80;;;;;;5025331;28;20056;-77
2021/04/01 05:39:50;;;;;;;45.55;33.88;;;11.40;77.80;;;;;;5030109;28;20044;-77
2021/04/01 05:42:18;;;;;;;48.22;34.03;;;11.40;77.90;;;;;;5024434;28;20396;-78
2021/04/01 05:44:50;;;;;;;58.33;38.60;;;11.40;77.90;;;;;;5021516;28;20121;-78
2021/04/01 05:47:34;;;;;;;56.83;41.22;;;11.40;77.90;;;;;;4995719;28;20037;-77
2021/04/01 05:50:29;;;;;;;64.13;43.78;;;11.50;78.00;;;;;;4996548;28;20031;-78
2021/04/01 06:03:51;;;;;;;64.22;44.75;;;11.90;77.60;;;;;;5029409;28;20026;-77
2021/04/01 06:06:24;;;;;;;63.13;43.67;;;12.00;77.50;;;;;;5030052;28;20132;-77
2021/04/01 06:08:52;;;;;;;72.65;47.05;;;12.00;77.30;;;;;;5032760;28;20507;-77
2021/04/01 06:11:20;;;;;;;71.00;47.90;;;12.10;77.10;;;;;;5027220;28;20033;-77
2021/04/01 06:14:11;;;;;;;73.47;50.15;;;12.20;76.50;;;;;;5032180;28;20096;-76
2021/04/01 06:16:41;;;;;;;70.05;47.47;;;12.20;76.20;;;;;;5021395;28;20038;-77
2021/04/01 06:19:10;;;;;;;78.45;51.28;;;12.30;76.00;;;;;;5024580;28;20095;-77
2021/04/01 06:21:44;;;;;;;67.70;48.15;;;12.40;75.60;;;;;;5025150;28;20033;-77
2021/04/01 06:24:26;;;;;;;73.80;51.25;;;12.50;75.30;;;;;;5019391;28;20105;-77
2021/04/01 06:27:09;;;;;;;71.15;48.95;;;12.60;74.90;;;;;;5025763;28;20121;-77
2021/04/01 06:29:38;;;;;;;71.88;50.45;;;12.70;74.30;;;;;;5018093;28;20049;-77
2021/04/01 06:32:18;;;;;;;73.72;52.00;;;12.80;73.40;;;;;;5034877;28;20481;-77
2021/04/01 06:34:44;;;;;;;77.75;51.97;;;12.80;72.80;;;;;;5026259;28;20034;-77
2021/04/01 06:37:51;;;;;;;74.80;52.38;;;12.90;72.50;;;;;;5037302;28;20482;-77
2021/04/01 06:40:17;;;;;;;81.05;51.90;;;12.90;72.70;;;;;;5028283;28;20558;-77
2021/04/01 06:42:53;;;;;;;83.00;51.25;;;12.90;72.60;;;;;;5027059;28;21109;-77
2021/04/01 06:45:23;;;;;;;75.82;49.13;;;12.70;72.90;;;;;;5027706;28;20026;-77
2021/04/01 06:47:56;;;;;;;80.80;51.38;;;12.70;73.20;;;;;;5031115;28;20199;-77
2021/04/01 06:50:26;;;;;;;74.45;52.30;;;12.70;73.50;;;;;;5005982;28;20193;-76
2021/04/01 06:53:11;;;;;;;76.35;49.47;;;12.80;73.10;;;;;;5012039;28;20491;-77
2021/04/01 06:55:50;;;;;;;72.30;48.72;;;12.90;71.80;;;;;;5022220;28;20048;-77
2021/04/01 07:01:23;;;;;;;73.00;47.60;;;12.90;70.40;;;;;;5040561;28;20049;-78
2021/04/01 07:03:56;;;;;;;76.00;47.53;;;13.00;70.00;;;;;;5025244;28;20124;-78
2021/04/01 07:06:30;;;;;;;67.57;45.83;;;13.10;69.70;;;;;;5025491;28;20492;-75
2021/04/01 07:09:05;;;;;;;72.85;45.25;;;13.30;69.80;;;;;;5027074;28;20041;-73
2021/04/01 07:11:42;;;;;;;69.13;46.38;;;13.40;68.90;;;;;;5003884;28;20025;-74
2021/04/01 07:14:16;;;;;;;61.97;43.63;;;13.60;69.00;;;;;;5000758;28;20026;-75
2021/04/01 07:17:07;;;;;;;67.45;44.35;;;13.60;68.50;;;;;;4996858;28;20027;-75
2021/04/01 07:47:21;;;;;;;57.97;39.65;;;14.80;64.20;;;;;;5019236;28;20033;-74
2021/04/01 07:49:49;;;;;;;59.65;38.35;;;15.10;63.30;;;;;;5017268;28;20060;-74
2021/04/01 07:52:19;;;;;;;63.67;39.67;;;15.20;62.90;;;;;;5025858;28;20400;-73
2021/04/01 08:02:51;;;;;;;59.72;37.78;;;15.50;62.00;;;;;;5019500;28;20068;-73
2021/04/01 08:05:33;;;;;;;63.22;39.83;;;15.40;61.70;;;;;;5012969;28;20038;-74
2021/04/01 08:08:04;;;;;;;65.25;39.40;;;15.60;61.70;;;;;;5026059;28;20044;-75
2021/04/01 08:10:39;;;;;;;58.08;38.58;;;15.60;61.60;;;;;;5020323;28;20068;-72
2021/04/01 08:13:08;;;;;;;60.42;40.78;;;15.80;61.60;;;;;;5022014;28;20041;-71
2021/04/01 08:15:37;;;;;;;61.55;39.28;;;15.80;62.40;;;;;;5024207;28;20374;-72
2021/04/01 08:18:40;;;;;;;65.00;39.17;;;15.90;61.30;;;;;;5028690;28;20037;-74
2021/04/01 08:21:02;;;;;;;63.80;39.90;;;15.80;60.60;;;;;;5023985;28;20030;-72
2021/04/01 08:23:32;;;;;;;59.65;38.30;;;15.80;60.80;;;;;;5020789;28;20116;-73
2021/04/01 08:26:21;;;;;;;59.08;38.83;;;15.80;60.00;;;;;;5028910;28;20029;-75
2021/04/01 08:36:52;;;;;;;65.45;40.78;;;16.20;61.70;;;;;;5024696;28;20113;-76
2021/04/01 08:39:20;;;;;;;64.53;40.42;;;16.30;61.90;;;;;;5024454;28;20121;-75
2021/04/01 08:42:08;;;;;;;62.22;41.35;;;16.30;61.90;;;;;;5014454;28;20080;-76
2021/04/01 08:44:49;;;;;;;65.95;40.70;;;16.50;62.00;;;;;;5017203;28;20080;-76
2021/04/01 08:47:49;;;;;;;64.95;44.22;;;16.50;62.10;;;;;;5023407;28;20057;-75
2021/04/01 08:50:31;;;;;;;74.28;47.40;;;16.30;63.40;;;;;;5035438;28;20058;-78
2021/04/01 08:53:14;;;;;;;73.10;50.67;;;16.40;63.50;;;;;;5041152;28;20052;-76
2021/04/01 08:56:12;;;;;;;78.97;51.67;;;16.40;63.80;;;;;;5019888;28;20064;-76
2021/04/01 08:58:46;;;;;;;78.10;50.80;;;16.30;64.20;;;;;;5024992;28;20034;-74
2021/04/01 09:01:15;;;;;;;77.70;53.42;;;16.40;64.20;;;;;;5024905;28;20400;-74
2021/04/01 09:03:43;;;;;;;76.18;52.47;;;16.20;65.40;;;;;;5024965;28;20030;-74
2021/04/01 09:06:11;;;;;;;80.40;54.20;;;16.10;65.00;;;;;;5031215;28;20412;-76
2021/04/01 09:08:41;;;;;;;78.28;53.92;;;16.00;66.00;;;;;;5048574;28;20063;-78
2021/04/01 09:11:09;;;;;;;84.15;60.90;;;15.80;65.90;;;;;;5020336;28;20385;-74
2021/04/01 09:13:36;;;;;;;90.07;64.03;;;15.70;67.00;;;;;;5035206;28;20473;-74
2021/04/01 09:16:17;;;;;;;90.85;65.20;;;15.50;68.20;;;;;;5020694;28;20036;-75
2021/04/01 09:18:46;;;;;;;91.63;63.50;;;15.70;68.10;;;;;;5025279;28;20033;-75
2021/04/01 09:21:13;;;;;;;91.43;65.95;;;15.70;68.60;;;;;;5032790;28;20034;-75
2021/04/01 09:23:46;;;;;;;92.93;65.38;;;15.70;68.10;;;;;;5036043;28;20448;-75
2021/04/01 09:26:13;;;;;;;90.80;64.60;;;16.10;67.80;;;;;;5019211;28;20025;-75
2021/04/01 09:28:42;;;;;;;87.28;63.95;;;16.30;66.40;;;;;;5018646;28;20534;-77
2021/04/01 09:31:10;;;;;;;88.30;61.55;;;16.50;65.50;;;;;;5015951;28;20389;-75
2021/04/01 09:33:37;;;;;;;87.30;63.58;;;16.50;64.80;;;;;;5020937;28;20048;-73
2021/04/01 09:36:13;;;;;;;87.70;63.90;;;16.50;64.60;;;;;;5024158;28;20036;-73
2021/04/01 09:38:51;;;;;;;92.28;63.58;;;16.60;64.40;;;;;;5017254;28;20061;-73
2021/04/01 09:41:29;;;;;;;93.10;65.82;;;16.60;64.90;;;;;;5020021;28;20071;-76
2021/04/01 09:43:55;;;;;;;87.93;65.70;;;16.80;65.30;;;;;;5017915;28;20091;-73
2021/04/01 09:46:22;;;;;;;92.82;65.70;;;17.00;64.90;;;;;;5018331;28;20041;-77
2021/04/01 09:49:04;;;;;;;90.53;65.90;;;17.10;63.90;;;;;;5024614;28;20100;-73
2021/04/01 09:51:31;;;;;;;89.03;63.88;;;17.20;63.60;;;;;;5031537;28;20052;-73
2021/04/01 09:53:58;;;;;;;88.63;62.85;;;16.90;64.30;;;;;;5023381;28;20038;-72
2021/04/01 09:56:30;;;;;;;88.55;64.28;;;17.00;64.50;;;;;;5017995;28;20061;-73
2021/04/01 09:58:56;;;;;;;88.65;65.30;;;16.80;64.20;;;;;;5025269;28;20038;-73
2021/04/01 10:01:31;;;;;;;87.63;65.30;;;16.70;65.30;;;;;;5018672;28;20052;-74
2021/04/01 10:04:04;;;;;;;92.63;65.50;;;17.00;64.20;;;;;;5030789;28;20112;-73
2021/04/01 10:06:47;;;;;;;96.43;68.18;;;17.00;64.10;;;;;;5027057;28;20052;-73
2021/04/01 10:09:14;;;;;;;84.70;64.05;;;17.30;64.00;;;;;;5020590;28;20062;-73
2021/04/01 10:12:00;;;;;;;92.55;67.55;;;17.50;62.80;;;;;;5029239;28;20112;-72
2021/04/01 10:14:27;;;;;;;97.68;70.82;;;17.30;63.30;;;;;;5021409;28;20025;-73
2021/04/01 10:17:09;;;;;;;93.90;71.57;;;17.10;64.20;;;;;;5036217;28;20069;-74
2021/04/01 10:19:39;;;;;;;103.88;74.75;;;17.00;64.60;;;;;;5038701;28;20037;-73
2021/04/01 10:22:06;;;;;;;98.30;73.15;;;16.80;65.20;;;;;;5029561;28;20035;-72
2021/04/01 10:24:35;;;;;;;98.30;70.20;;;16.90;65.60;;;;;;5028904;28;20462;-74
2021/04/01 10:27:22;;;;;;;102.82;72.90;;;17.00;64.80;;;;;;5025132;28;20037;-73
2021/04/01 10:32:43;;;;;;;103.97;70.47;;;17.60;63.20;;;;;;5022573;28;20120;-74
2021/04/01 10:35:11;;;;;;;100.38;69.05;;;17.70;62.10;;;;;;5029417;28;20041;-73
2021/04/01 10:37:44;;;;;;;99.00;67.97;;;17.70;61.00;;;;;;5027716;28;20029;-73
2021/04/01 10:40:11;;;;;;;100.90;68.13;;;17.60;61.50;;;;;;5026664;28;20044;-73
2021/04/01 10:42:36;;;;;;;100.32;69.78;;;17.60;59.90;;;;;;5023386;28;20461;-74
2021/04/01 10:45:08;;;;;;;106.78;70.43;;;17.60;60.10;;;;;;5038153;28;20038;-73
2021/04/01 10:48:00;;;;;;;95.07;68.25;;;17.80;60.00;;;;;;5026715;28;20029;-73
2021/04/01 10:50:28;;;;;;;102.15;68.80;;;17.80;59.10;;;;;;5023343;28;20081;-73
2021/04/01 10:52:55;;;;;;;99.90;70.30;;;17.70;59.80;;;;;;5023171;28;20077;-73
2021/04/01 10:55:25;;;;;;;97.00;67.95;;;17.50;59.50;;;;;;5020716;28;20044;-73
2021/04/01 10:57:51;;;;;;;101.13;67.70;;;17.30;59.90;;;;;;5027948;28;20129;-78
2021/04/01 11:00:19;;;;;;;107.47;70.07;;;17.30;60.40;;;;;;5024019;28;20491;-73
2021/04/01 11:02:58;;;;;;;95.45;67.97;;;17.40;60.30;;;;;;5024817;28;20037;-76
2021/04/01 11:05:25;;;;;;;96.53;68.50;;;17.20;60.30;;;;;;5023292;28;20191;-73
2021/04/01 11:08:00;;;;;;;101.93;65.63;;;17.30;60.70;;;;;;5020979;28;20045;-73
2021/04/01 11:10:30;;;;;;;100.32;69.00;;;17.30;59.90;;;;;;5020590;28;20471;-72
2021/04/01 11:13:00;;;;;;;101.22;69.00;;;17.10;61.90;;;;;;5029513;28;20061;-74
2021/04/01 11:15:32;;;;;;;105.30;69.78;;;17.60;61.00;;;;;;5010103;28;20083;-72
2021/04/01 11:18:01;;;;;;;106.35;76.40;;;17.80;61.10;;;;;;5027259;28;20041;-73
2021/04/01 11:20:39;;;;;;;105.32;73.93;;;17.90;62.00;;;;;;5031907;28;20087;-72
2021/04/01 11:23:08;;;;;;;100.32;70.10;;;17.90;61.10;;;;;;5028891;28;20425;-74
2021/04/01 11:25:36;;;;;;;105.05;72.20;;;17.90;60.70;;;;;;5031527;28;20451;-72
2021/04/01 11:28:02;;;;;;;105.18;69.63;;;18.10;61.10;;;;;;5029585;28;20117;-72
2021/04/01 11:30:48;;;;;;;100.97;69.55;;;17.90;60.80;;;;;;5026074;28;20475;-72
2021/04/01 11:33:16;;;;;;;106.00;71.10;;;17.90;61.30;;;;;;5026943;28;20041;-73
2021/04/01 11:35:44;;;;;;;101.75;69.45;;;18.10;61.90;;;;;;5026001;28;20069;-75
2021/04/01 11:38:24;;;;;;;103.80;69.78;;;18.20;61.00;;;;;;5017584;28;20040;-74
2021/04/01 11:41:03;;;;;;;97.25;65.53;;;18.50;59.40;;;;;;5043444;28;20047;-75
2021/04/01 11:43:34;;;;;;;97.65;65.72;;;18.70;58.80;;;;;;5027184;28;20992;-72
2021/04/01 11:46:15;;;;;;;90.65;59.33;;;18.60;57.70;;;;;;5028306;28;20038;-72
2021/04/01 11:48:41;;;;;;;84.97;55.75;;;18.50;58.30;;;;;;5017358;28;20042;-73
2021/04/01 11:51:15;;;;;;;85.18;51.45;;;18.10;58.20;;;;;;5005710;28;20026;-74
2021/04/01 11:53:42;;;;;;;76.50;49.38;;;17.60;59.30;;;;;;5009311;28;20045;-73
2021/04/01 11:56:08;;;;;;;78.75;48.75;;;17.60;59.80;;;;;;5035331;28;20086;-73
2021/04/01 11:58:34;;;;;;;76.47;47.88;;;17.40;59.80;;;;;;5024544;28;20480;-72
2021/04/01 12:01:10;;;;;;;73.30;45.15;;;17.20;59.80;;;;;;5025788;28;20145;-72
2021/04/01 12:06:24;;;;;;;65.32;41.50;;;17.40;59.00;;;;;;5016336;28;20052;-73
2021/04/01 12:08:50;;;;;;;64.97;42.22;;;17.10;60.10;;;;;;5016862;28;20046;-72
2021/04/01 12:11:16;;;;;;;71.78;43.08;;;16.70;60.80;;;;;;5021143;28;20111;-71
2021/04/01 12:13:41;;;;;;;67.03;44.42;;;16.70;61.00;;;;;;5018857;28;20084;-72
2021/04/01 12:16:24;;;;;;;71.60;45.10;;;16.80;61.40;;;;;;5016762;28;20433;-72
2021/04/01 12:18:50;;;;;;;72.38;44.05;;;17.00;61.70;;;;;;5022560;28;20060;-73
2021/04/01 12:21:17;;;;;;;72.53;45.50;;;17.00;59.50;;;;;;5027099;28;20029;-74
2021/04/01 12:23:44;;;;;;;72.20;42.85;;;17.20;59.60;;;;;;5033583;28;20519;-74
2021/04/01 12:26:09;;;;;;;59.78;34.47;;;17.10;60.50;;;;;;5029729;28;20541;-73
2021/04/01 12:28:35;;;;;;;58.60;34.78;;;17.30;62.70;;;;;;5034275;28;20033;-74
2021/04/01 12:31:01;;;;;;;66.55;35.35;;;17.40;62.70;;;;;;5026647;28;20029;-74
2021/04/01 12:33:29;;;;;;;62.85;34.70;;;17.60;61.10;;;;;;5037036;28;20079;-73
2021/04/01 12:36:00;;;;;;;57.30;36.38;;;17.40;62.30;;;;;;5038474;28;20037;-74
2021/04/01 12:38:31;;;;;;;59.08;34.00;;;17.60;62.20;;;;;;5030533;28;20064;-73
2021/04/01 12:41:05;;;;;;;59.20;33.05;;;17.50;62.20;;;;;;5028227;28;20033;-75
2021/04/01 12:43:36;;;;;;;58.72;30.70;;;17.60;62.80;;;;;;5031853;28;20099;-73
2021/04/01 12:46:02;;;;;;;77.82;46.45;;;17.70;61.90;;;;;;5022195;28;20037;-73
2021/04/01 12:48:48;;;;;;;76.38;50.15;;;17.70;61.00;;;;;;5026479;28;20033;-73
2021/04/01 12:51:17;;;;;;;75.70;50.13;;;17.60;61.30;;;;;;5022621;28;20045;-73
2021/04/01 12:53:43;;;;;;;72.53;45.17;;;17.60;61.10;;;;;;5025181;28;20120;-73
2021/04/01 12:58:47;;;;;;;75.85;46.25;;;17.80;61.20;;;;;;5026646;28;20065;-76
2021/04/01 13:01:31;;;;;;;71.57;49.03;;;17.80;60.80;;;;;;5028564;28;20030;-73
2021/04/01 13:04:01;;;;;;;73.38;44.70;;;17.90;61.60;;;;;;5023511;28;20457;-74
2021/04/01 13:07:20;;;;;;;78.22;52.75;;;18.30;61.30;;;;;;5034336;28;20446;-73
2021/04/01 13:11:55;;;;;;;80.93;54.58;;;18.10;59.80;;;;;;5024112;28;20479;-73
2021/04/01 13:14:23;;;;;;;85.15;57.17;;;18.10;60.60;;;;;;5025146;28;20388;-72
2021/04/01 13:16:50;;;;;;;89.88;58.33;;;18.10;61.00;;;;;;5027379;28;20054;-74
2021/04/01 13:19:16;;;;;;;82.85;55.13;;;18.00;60.80;;;;;;5032413;28;20037;-73
2021/04/01 13:26:41;;;;;;;75.57;49.15;;;17.70;62.70;;;;;;5019039;28;20034;-73
2021/04/01 13:29:08;;;;;;;77.35;51.20;;;17.80;61.70;;;;;;5036196;28;20078;-75
2021/04/01 13:31:41;;;;;;;70.22;46.08;;;17.80;61.80;;;;;;5034854;28;20028;-74
2021/04/01 13:34:26;;;;;;;71.20;45.17;;;17.50;62.10;;;;;;5015647;28;20434;-74
2021/04/01 13:39:36;;;;;;;63.00;36.03;;;17.70;61.10;;;;;;5016912;28;20449;-73
2021/04/01 13:44:33;;;;;;;63.35;35.20;;;17.60;61.30;;;;;;5024467;28;20373;-74
2021/04/01 13:46:59;;;;;;;42.30;25.40;;;17.10;61.00;;;;;;5019888;28;20461;-73
2021/04/01 13:49:28;;;;;;;46.63;25.70;;;17.00;61.50;;;;;;5018261;28;20049;-74
2021/04/01 13:52:06;;;;;;;48.75;23.35;;;17.10;61.70;;;;;;5020087;28;20152;-74
2021/04/01 13:54:45;;;;;;;46.10;21.10;;;17.00;61.50;;;;;;5022981;28;20431;-73
2021/04/01 14:09:09;;;;;;;35.83;14.43;;;16.50;62.30;;;;;;5013565;28;20621;-73
2021/04/01 14:11:40;;;;;;;28.85;13.88;;;16.40;61.80;;;;;;5020931;28;20464;-77
2021/04/01 14:14:06;;;;;;;28.13;11.93;;;16.40;61.70;;;;;;5020178;28;20022;-73
2021/04/01 14:16:34;;;;;;;33.08;12.55;;;16.60;61.10;;;;;;5018416;28;20037;-74
2021/04/01 14:19:00;;;;;;;30.17;12.68;;;16.50;61.80;;;;;;5023396;28;20075;-74
2021/04/01 14:21:26;;;;;;;32.88;10.73;;;16.50;61.20;;;;;;5025760;28;20037;-74
2021/04/01 14:23:52;;;;;;;30.90;10.85;;;16.30;61.40;;;;;;5027768;28;20033;-74
2021/04/01 14:26:25;;;;;;;31.25;10.32;;;16.40;61.20;;;;;;5022223;28;20037;-73
2021/04/01 14:28:51;;;;;;;25.02;9.98;;;16.30;61.60;;;;;;5023623;28;20377;-74
2021/04/01 14:31:19;;;;;;;31.35;9.90;;;16.40;60.90;;;;;;5016197;28;20048;-76
2021/04/01 14:33:46;;;;;;;25.77;8.77;;;16.70;60.70;;;;;;5018703;28;20041;-73